Terminal Aerodrome Forecast
Issued by NWS

Home | Current Version | Previous Version | Text Only | Print | Product List | Glossary On
Versions: 1 2 3 4 5 6 7 8 9 10 11 12 13 14 15 16 17
000
FTUS42 KMLB 171740
TAFFPR
TAF
KFPR 171740Z 1718/1818 03008KT P6SM VCSH SCT025 SCT080 BKN250
      TEMPO 1718/1720 5SM -SHRA BKN025
     FM180200 03005KT P6SM SCT035 BKN050 OVC100
     FM181500 05007KT P6SM SCT025 BKN080=

USA.gov is the U.S. government's official web portal to all federal, state and local government web resources and services.